createdAt,value
2018-06-12T00:02:11.625Z,15.33
2018-06-12T00:04:40.146Z,16.10
2018-06-12T00:07:08.690Z,16.87
2018-06-12T00:09:37.233Z,15.83
2018-06-12T00:12:05.852Z,15.37
2018-06-12T00:14:34.356Z,15.97
2018-06-12T00:17:02.874Z,17.87
2018-06-12T00:19:31.410Z,15.50
2018-06-12T00:21:59.961Z,15.57
2018-06-12T00:24:28.481Z,16.90
2018-06-12T00:26:56.965Z,17.50
2018-06-12T00:29:25.416Z,17.23
2018-06-12T00:31:53.925Z,16.47
2018-06-12T00:34:22.432Z,16.50
2018-06-12T00:36:51.033Z,16.33
2018-06-12T00:39:19.516Z,16.23
2018-06-12T00:41:48.054Z,17.23
2018-06-12T00:44:16.578Z,15.80
2018-06-12T00:46:45.095Z,15.10
2018-06-12T00:49:13.604Z,16.27
2018-06-12T00:51:42.126Z,16.70
2018-06-12T00:54:10.304Z,17.37
2018-06-12T00:57:10.584Z,16.60
2018-06-12T00:59:39.088Z,16.23
2018-06-12T01:02:07.590Z,17.50
2018-06-12T01:04:36.911Z,15.90
2018-06-12T01:07:05.365Z,16.77
2018-06-12T01:09:33.849Z,17.30
2018-06-12T01:12:02.341Z,17.97
2018-06-12T01:14:30.838Z,16.90
2018-06-12T01:16:58.987Z,16.47
2018-06-12T01:19:27.501Z,19.10
2018-06-12T01:21:55.976Z,17.30
2018-06-12T01:24:24.448Z,16.73
2018-06-12T01:26:52.967Z,16.23
2018-06-12T01:29:22.115Z,17.93
2018-06-12T01:31:50.630Z,15.43
2018-06-12T01:34:18.766Z,17.07
2018-06-12T01:36:47.271Z,18.00
2018-06-12T01:39:15.793Z,19.20
2018-06-12T01:41:44.380Z,16.33
2018-06-12T01:44:12.945Z,17.43
2018-06-12T01:46:41.459Z,16.10
2018-06-12T01:49:10.036Z,16.23
2018-06-12T01:51:38.690Z,15.93
2018-06-12T01:54:07.259Z,15.07
2018-06-12T01:56:35.927Z,15.93
2018-06-12T01:59:04.420Z,15.27
2018-06-12T02:01:32.953Z,15.43
2018-06-12T02:04:01.798Z,15.83
2018-06-12T02:06:30.356Z,16.37
2018-06-12T02:08:59.466Z,16.60
2018-06-12T02:11:27.934Z,15.50
2018-06-12T02:13:56.417Z,20.53
2018-06-12T02:16:24.945Z,15.67
2018-06-12T02:18:53.457Z,16.67
2018-06-12T02:21:21.921Z,22.27
2018-06-12T02:23:50.387Z,19.40
2018-06-12T02:26:18.872Z,18.13
2018-06-12T02:28:47.351Z,15.80
2018-06-12T02:31:17.428Z,17.00
2018-06-12T02:33:46.700Z,18.97
2018-06-12T02:36:16.053Z,16.80
2018-06-12T02:38:44.880Z,15.77
2018-06-12T02:41:14.090Z,17.00
2018-06-12T02:43:43.283Z,17.20
2018-06-12T02:46:12.554Z,15.90
2018-06-12T02:48:41.707Z,19.77
2018-06-12T02:51:10.212Z,19.80
2018-06-12T02:53:38.734Z,17.60
2018-06-12T02:56:06.928Z,18.13
2018-06-12T02:58:35.472Z,18.30
2018-06-12T03:01:03.997Z,20.20
2018-06-12T03:03:32.498Z,20.93
2018-06-12T03:06:01.025Z,19.53
2018-06-12T03:08:29.560Z,16.97
2018-06-12T03:10:58.088Z,17.80
2018-06-12T03:13:26.569Z,19.17
2018-06-12T03:15:55.126Z,18.30
2018-06-12T03:18:23.643Z,19.43
2018-06-12T03:20:52.159Z,17.83
2018-06-12T03:23:20.711Z,20.07
2018-06-12T03:25:59.108Z,22.70
2018-06-12T03:28:27.666Z,17.97
2018-06-12T03:30:56.125Z,17.80
2018-06-12T03:33:24.618Z,18.27
2018-06-12T03:35:53.133Z,17.90
2018-06-12T03:38:21.727Z,17.37
2018-06-12T03:40:50.417Z,17.93
2018-06-12T03:43:18.904Z,18.77
2018-06-12T03:45:47.440Z,21.37
2018-06-12T03:48:15.968Z,20.43
2018-06-12T03:50:44.496Z,19.13
2018-06-12T03:53:13.060Z,21.77
2018-06-12T03:55:41.521Z,19.23
2018-06-12T03:58:10.680Z,20.00
2018-06-12T04:00:39.831Z,18.90
2018-06-12T04:03:08.301Z,18.47
2018-06-12T04:05:36.913Z,23.43
2018-06-12T04:08:05.545Z,18.57
2018-06-12T04:10:34.058Z,18.97
2018-06-12T04:13:02.609Z,20.47
2018-06-12T04:15:31.106Z,22.57
2018-06-12T04:18:00.236Z,18.80
2018-06-12T04:20:28.814Z,20.83
2018-06-12T04:22:57.264Z,20.70
2018-06-12T04:25:25.761Z,19.77
2018-06-12T04:27:54.979Z,20.07
2018-06-12T04:30:23.132Z,18.97
2018-06-12T04:32:51.626Z,17.77
2018-06-12T04:35:20.117Z,20.77
2018-06-12T04:37:48.642Z,19.60
2018-06-12T04:40:17.125Z,18.60
2018-06-12T04:42:45.633Z,20.33
2018-06-12T04:45:14.173Z,21.70
2018-06-12T04:47:42.790Z,21.00
2018-06-12T04:50:11.317Z,20.33
2018-06-12T04:52:39.876Z,19.33
2018-06-12T04:55:08.400Z,18.77
2018-06-12T04:57:36.948Z,17.50
2018-06-12T05:00:05.568Z,20.93
2018-06-12T05:02:34.093Z,19.87
2018-06-12T05:05:03.129Z,18.50
2018-06-12T05:07:31.633Z,19.13
2018-06-12T05:10:00.115Z,19.70
2018-06-12T05:12:28.648Z,15.70
2018-06-12T05:14:57.194Z,18.23
2018-06-12T05:17:25.672Z,14.10
2018-06-12T05:19:54.251Z,16.43
2018-06-12T05:22:22.725Z,15.53
2018-06-12T05:24:51.293Z,15.57
2018-06-12T05:27:19.779Z,13.03
2018-06-12T05:29:49.179Z,13.17
2018-06-12T05:32:17.764Z,17.77
2018-06-12T05:34:45.951Z,14.53
2018-06-12T05:37:14.483Z,15.60
2018-06-12T05:39:43.035Z,14.93
2018-06-12T05:42:11.579Z,14.43
2018-06-12T05:44:40.113Z,16.47
2018-06-12T05:47:08.846Z,13.13
2018-06-12T05:49:37.401Z,13.60
2018-06-12T05:52:06.683Z,13.63
2018-06-12T05:54:35.249Z,12.23
2018-06-12T05:57:03.761Z,14.57
2018-06-12T05:59:32.231Z,11.83
2018-06-12T06:02:00.884Z,11.93
2018-06-12T06:04:29.381Z,15.10
2018-06-12T06:06:57.873Z,16.83
2018-06-12T06:09:42.261Z,13.40
2018-06-12T06:12:10.841Z,14.57
2018-06-12T06:14:39.277Z,14.93
2018-06-12T06:17:07.755Z,13.97
2018-06-12T06:19:36.195Z,16.87
2018-06-12T06:22:04.637Z,11.03
2018-06-12T06:24:33.108Z,17.37
2018-06-12T06:27:01.549Z,11.70
2018-06-12T06:29:29.967Z,14.93
2018-06-12T06:31:58.393Z,10.97
2018-06-12T06:34:26.818Z,12.53
2018-06-12T06:36:55.246Z,12.20
2018-06-12T06:39:23.709Z,17.40
2018-06-12T06:41:52.172Z,15.93
2018-06-12T06:44:20.648Z,15.20
2018-06-12T06:46:49.173Z,24.37
2018-06-12T06:49:17.659Z,25.73
2018-06-12T06:51:46.101Z,11.63
2018-06-12T06:54:14.650Z,13.83
2018-06-12T06:56:43.097Z,14.13
2018-06-12T06:59:11.507Z,17.53
2018-06-12T07:01:39.912Z,12.37
2018-06-12T07:04:08.332Z,13.93
2018-06-12T07:06:36.773Z,10.97
2018-06-12T07:09:07.946Z,18.20
2018-06-12T07:11:36.408Z,12.43
2018-06-12T07:14:04.888Z,11.97
2018-06-12T07:16:33.389Z,12.80
2018-06-12T07:19:01.936Z,11.97
2018-06-12T07:21:30.421Z,10.27
2018-06-12T07:23:58.811Z,12.97
2018-06-12T07:26:27.244Z,16.67
2018-06-12T07:28:55.959Z,11.23
2018-06-12T07:31:24.381Z,14.47
2018-06-12T07:33:52.820Z,10.83
2018-06-12T07:36:21.265Z,16.63
2018-06-12T07:38:50.971Z,13.20
2018-06-12T07:41:19.380Z,13.10
2018-06-12T07:43:47.832Z,11.63
2018-06-12T07:46:16.254Z,11.13
2018-06-12T07:48:44.690Z,13.30
2018-06-12T07:51:13.102Z,15.33
2018-06-12T07:53:41.219Z,11.53
2018-06-12T07:56:09.682Z,14.73
2018-06-12T07:58:38.953Z,10.53
2018-06-12T08:01:07.377Z,11.60
2018-06-12T08:03:35.818Z,11.07
2018-06-12T08:06:04.257Z,14.93
2018-06-12T08:08:32.714Z,11.87
2018-06-12T08:11:01.144Z,12.93
2018-06-12T08:13:29.577Z,10.87
2018-06-12T08:15:58.008Z,12.93
2018-06-12T08:18:26.451Z,15.03
2018-06-12T08:23:21.072Z,14.10
2018-06-12T08:25:49.545Z,14.50
2018-06-12T08:28:17.684Z,11.50
2018-06-12T08:30:46.176Z,12.20
2018-06-12T08:33:14.610Z,12.00
2018-06-12T08:35:43.052Z,13.40
2018-06-12T08:38:11.536Z,13.47
2018-06-12T08:40:39.965Z,12.63
2018-06-12T08:43:09.527Z,13.40
2018-06-12T08:45:37.965Z,13.60
2018-06-12T08:48:06.534Z,12.83
2018-06-12T08:50:34.949Z,10.70
2018-06-12T08:53:03.410Z,10.90
2018-06-12T08:55:31.900Z,13.70
2018-06-12T08:58:00.348Z,11.87
2018-06-12T09:00:28.831Z,18.60
2018-06-12T09:02:57.273Z,12.40
2018-06-12T09:05:25.696Z,11.17
2018-06-12T09:07:54.162Z,13.53
2018-06-12T09:10:22.593Z,12.30
2018-06-12T09:12:51.052Z,13.70
2018-06-12T09:15:19.467Z,12.63
2018-06-12T09:17:47.946Z,14.03
2018-06-12T09:20:16.387Z,12.90
2018-06-12T09:22:45.247Z,11.27
2018-06-12T09:25:13.721Z,18.03
2018-06-12T09:27:48.214Z,14.13
2018-06-12T09:30:17.832Z,12.63
2018-06-12T09:32:46.810Z,12.93
2018-06-12T09:35:15.232Z,10.63
2018-06-12T09:37:43.656Z,10.90
2018-06-12T09:40:12.141Z,13.37
2018-06-12T09:42:40.593Z,11.43
2018-06-12T09:45:09.073Z,11.97
2018-06-12T09:47:37.519Z,13.73
2018-06-12T09:50:06.023Z,10.67
2018-06-12T09:52:34.500Z,10.87
2018-06-12T09:55:02.958Z,11.53
2018-06-12T09:57:31.456Z,11.90
2018-06-12T09:59:59.942Z,12.47
2018-06-12T10:02:28.441Z,12.80
2018-06-12T10:04:56.932Z,10.63
2018-06-12T10:07:25.437Z,10.97
2018-06-12T10:09:53.949Z,13.27
2018-06-12T10:12:22.400Z,12.20
2018-06-12T10:14:50.854Z,11.63
2018-06-12T10:17:19.337Z,16.13
2018-06-12T10:19:47.828Z,11.80
2018-06-12T10:22:16.789Z,12.03
2018-06-12T10:24:45.266Z,11.67
2018-06-12T10:27:13.768Z,11.97
2018-06-12T10:29:42.249Z,12.33
2018-06-12T10:32:10.751Z,12.20
2018-06-12T10:34:39.193Z,13.90
2018-06-12T10:37:07.714Z,17.03
2018-06-12T10:39:36.116Z,12.00
2018-06-12T10:42:04.619Z,13.10
2018-06-12T10:44:33.100Z,12.10
2018-06-12T10:47:01.295Z,11.77
2018-06-12T10:49:29.821Z,12.40
2018-06-12T10:51:58.285Z,11.50
2018-06-12T10:54:26.737Z,17.13
2018-06-12T10:56:55.194Z,13.67
2018-06-12T10:59:23.696Z,13.93
2018-06-12T11:01:52.142Z,15.23
2018-06-12T11:04:20.618Z,11.83
2018-06-12T11:06:49.142Z,11.67
2018-06-12T11:09:17.617Z,11.23
2018-06-12T11:11:46.085Z,12.20
2018-06-12T11:14:14.533Z,11.43
2018-06-12T11:16:43.023Z,10.83
2018-06-12T11:19:11.567Z,11.63
2018-06-12T11:21:40.053Z,11.53
2018-06-12T11:24:08.561Z,11.53
2018-06-12T11:26:36.761Z,13.00
2018-06-12T11:29:05.268Z,12.67
2018-06-12T11:31:33.736Z,12.00
2018-06-12T11:34:02.210Z,10.27
2018-06-12T11:36:30.712Z,10.47
2018-06-12T11:38:59.256Z,11.00
2018-06-12T11:41:27.753Z,11.23
2018-06-12T11:43:56.226Z,10.50
2018-06-12T11:46:24.699Z,10.57
2018-06-12T11:48:53.180Z,9.67
2018-06-12T11:51:21.668Z,9.07
2018-06-12T11:53:50.165Z,9.90
2018-06-12T11:56:18.607Z,11.40
2018-06-12T11:58:47.037Z,12.63
2018-06-12T12:01:15.579Z,9.80
2018-06-12T12:03:44.007Z,11.60
2018-06-12T12:06:12.436Z,14.00
2018-06-12T12:08:41.190Z,9.03
2018-06-12T12:11:09.608Z,10.87
2018-06-12T12:13:38.240Z,11.27
2018-06-12T12:16:06.810Z,9.97
2018-06-12T12:18:35.285Z,9.60
2018-06-12T12:21:03.788Z,11.27
2018-06-12T12:23:32.207Z,9.90
2018-06-12T12:26:01.396Z,9.50
2018-06-12T12:28:29.936Z,12.13
2018-06-12T12:30:58.440Z,8.53
2018-06-12T12:33:26.922Z,8.77
2018-06-12T12:35:55.424Z,9.17
2018-06-12T12:38:23.849Z,11.07
2018-06-12T12:40:52.321Z,11.27
2018-06-12T12:43:20.769Z,8.97
2018-06-12T12:45:49.210Z,10.87
2018-06-12T12:48:17.728Z,10.43
2018-06-12T12:50:46.178Z,9.33
2018-06-12T12:53:14.706Z,10.37
2018-06-12T12:55:43.255Z,9.23
2018-06-12T12:58:11.829Z,10.60
2018-06-12T13:00:40.321Z,9.37
2018-06-12T13:03:08.800Z,9.47
2018-06-12T13:05:37.342Z,12.57
2018-06-12T13:08:05.829Z,9.77
2018-06-12T13:10:34.340Z,8.60
2018-06-12T13:13:02.796Z,8.27
2018-06-12T13:15:31.283Z,8.53
2018-06-12T13:17:59.774Z,7.47
2018-06-12T13:20:28.306Z,8.60
2018-06-12T13:22:56.869Z,8.53
2018-06-12T13:25:25.449Z,6.87
2018-06-12T13:27:53.938Z,10.63
2018-06-12T13:30:22.446Z,7.93
2018-06-12T13:32:50.898Z,8.50
2018-06-12T13:35:19.385Z,13.47
2018-06-12T13:37:47.861Z,8.77
2018-06-12T13:40:16.365Z,8.50
2018-06-12T13:42:44.944Z,8.10
2018-06-12T13:45:13.373Z,8.00
2018-06-12T13:47:41.875Z,10.40
2018-06-12T13:50:10.337Z,10.53
2018-06-12T13:52:38.786Z,10.60
2018-06-12T13:55:07.271Z,11.63
2018-06-12T13:57:35.775Z,11.97
2018-06-12T14:00:05.018Z,10.13
2018-06-12T14:02:33.455Z,9.60
2018-06-12T14:05:01.918Z,12.10
2018-06-12T14:07:30.373Z,9.87
2018-06-12T14:09:58.842Z,8.60
2018-06-12T14:12:27.327Z,10.10
2018-06-12T14:14:55.841Z,9.17
2018-06-12T14:17:24.304Z,10.57
2018-06-12T14:19:52.765Z,12.13
2018-06-12T14:22:21.240Z,10.10
2018-06-12T14:24:49.770Z,8.60
2018-06-12T14:27:18.248Z,11.73
2018-06-12T14:29:46.728Z,12.07
2018-06-12T14:32:15.173Z,14.67
2018-06-12T14:34:43.671Z,9.33
2018-06-12T14:37:12.174Z,9.33
2018-06-12T14:39:40.630Z,12.50
2018-06-12T14:42:09.114Z,11.03
2018-06-12T14:44:37.587Z,9.67
2018-06-12T14:47:06.051Z,10.60
2018-06-12T14:49:34.545Z,9.13
2018-06-12T14:52:03.031Z,11.83
2018-06-12T14:54:31.484Z,10.10
2018-06-12T14:56:59.912Z,7.60
2018-06-12T14:59:28.365Z,6.77
2018-06-12T15:01:56.829Z,10.37
2018-06-12T15:04:25.296Z,9.07
2018-06-12T15:06:53.431Z,8.63
2018-06-12T15:09:21.854Z,7.93
2018-06-12T15:11:50.052Z,9.00
2018-06-12T15:14:18.540Z,6.93
2018-06-12T15:16:47.100Z,7.27
2018-06-12T15:19:16.683Z,6.63
2018-06-12T15:21:45.163Z,7.30
2018-06-12T15:24:13.730Z,8.40
2018-06-12T15:26:42.382Z,6.67
2018-06-12T15:29:10.841Z,10.17
2018-06-12T15:31:39.305Z,9.93
2018-06-12T15:34:07.777Z,8.83
2018-06-12T15:36:36.299Z,10.13
2018-06-12T15:39:07.237Z,8.43
2018-06-12T15:41:36.084Z,8.77
2018-06-12T15:44:04.598Z,8.50
2018-06-12T15:46:33.112Z,7.77
2018-06-12T15:49:01.561Z,7.87
2018-06-12T15:51:30.009Z,10.63
2018-06-12T15:53:58.475Z,7.70
2018-06-12T15:56:27.089Z,11.00
2018-06-12T15:58:55.570Z,9.13
2018-06-12T16:01:23.998Z,8.33
2018-06-12T16:03:53.366Z,8.43
2018-06-12T16:06:21.890Z,10.13
2018-06-12T16:08:50.359Z,11.43
2018-06-12T16:11:18.833Z,11.30
2018-06-12T16:13:47.304Z,10.40
2018-06-12T16:16:15.765Z,9.70
2018-06-12T16:18:44.224Z,9.63
2018-06-12T16:21:12.674Z,10.70
2018-06-12T16:23:41.138Z,8.27
2018-06-12T16:26:09.694Z,10.60
2018-06-12T16:28:38.096Z,11.50
2018-06-12T16:31:06.261Z,11.00
2018-06-12T16:33:34.702Z,7.63
2018-06-12T16:36:03.263Z,7.70
2018-06-12T16:38:31.654Z,12.57
2018-06-12T16:41:00.148Z,10.03
2018-06-12T16:43:28.590Z,9.20
2018-06-12T16:45:57.046Z,8.10
2018-06-12T16:48:25.491Z,11.70
2018-06-12T16:50:53.935Z,6.97
2018-06-12T16:53:22.441Z,7.83
2018-06-12T16:55:50.915Z,7.23
2018-06-12T16:58:19.526Z,8.97
2018-06-12T17:00:47.971Z,9.03
2018-06-12T17:03:16.456Z,5.53
2018-06-12T17:05:44.953Z,7.60
2018-06-12T17:08:13.445Z,4.90
2018-06-12T17:10:41.989Z,6.50
2018-06-12T17:13:10.437Z,6.50
2018-06-12T17:15:38.904Z,7.13
2018-06-12T17:18:07.396Z,6.53
2018-06-12T17:20:35.881Z,6.47
2018-06-12T17:23:04.379Z,5.67
2018-06-12T17:25:32.895Z,7.03
2018-06-12T17:28:01.411Z,5.90
2018-06-12T17:30:29.891Z,7.23
2018-06-12T17:32:58.410Z,7.30
2018-06-12T17:35:26.872Z,5.70
2018-06-12T17:37:55.357Z,7.03
2018-06-12T17:40:23.526Z,7.20
2018-06-12T17:42:51.959Z,6.37
2018-06-12T17:45:20.411Z,7.07
2018-06-12T17:47:49.053Z,8.47
2018-06-12T17:50:17.529Z,7.83
2018-06-12T17:52:45.964Z,7.70
2018-06-12T17:55:14.429Z,7.37
2018-06-12T17:57:42.925Z,6.03
2018-06-12T18:00:11.561Z,7.13
2018-06-12T18:02:40.025Z,8.57
2018-06-12T18:05:08.885Z,9.03
2018-06-12T18:07:37.327Z,10.67
2018-06-12T18:10:05.784Z,5.80
2018-06-12T18:12:34.324Z,7.50
2018-06-12T18:15:02.798Z,7.53
2018-06-12T18:17:31.266Z,8.67
2018-06-12T18:20:01.588Z,8.70
2018-06-12T18:22:30.808Z,8.40
2018-06-12T18:24:59.555Z,6.30
2018-06-12T18:27:27.952Z,7.60
2018-06-12T18:29:56.460Z,6.27
2018-06-12T18:32:24.901Z,8.63
2018-06-12T18:34:53.420Z,8.57
2018-06-12T18:37:21.917Z,7.70
2018-06-12T18:39:50.356Z,6.17
2018-06-12T18:42:18.867Z,7.67
2018-06-12T18:44:47.380Z,6.73
2018-06-12T18:47:15.861Z,7.00
2018-06-12T18:49:44.301Z,8.10
2018-06-12T18:52:12.461Z,6.73
2018-06-12T18:54:40.958Z,9.70
2018-06-12T18:57:09.468Z,6.03
2018-06-12T18:59:37.900Z,6.43
2018-06-12T19:02:06.936Z,8.83
2018-06-12T19:04:35.498Z,8.30
2018-06-12T19:07:03.985Z,5.20
2018-06-12T19:09:32.478Z,5.70
2018-06-12T19:12:00.950Z,6.10
2018-06-12T19:14:29.433Z,7.00
2018-06-12T19:16:57.876Z,6.43
2018-06-12T19:19:26.341Z,5.27
2018-06-12T19:21:54.916Z,4.77
2018-06-12T19:24:23.401Z,5.70
2018-06-12T19:26:51.862Z,5.73
2018-06-12T19:29:20.299Z,4.43
2018-06-12T19:31:48.801Z,8.03
2018-06-12T19:34:17.379Z,5.53
2018-06-12T19:36:45.871Z,3.03
2018-06-12T19:39:14.345Z,3.53
2018-06-12T19:41:42.952Z,2.53
2018-06-12T19:44:11.459Z,4.37
2018-06-12T19:46:39.920Z,2.40
2018-06-12T19:49:08.399Z,4.23
2018-06-12T19:51:36.943Z,4.70
2018-06-12T19:54:05.105Z,3.90
2018-06-12T19:56:33.662Z,3.53
2018-06-12T19:59:02.973Z,4.57
2018-06-12T20:01:31.464Z,3.87
2018-06-12T20:03:59.964Z,3.87
2018-06-12T20:06:28.500Z,2.23
2018-06-12T20:08:57.009Z,2.70
2018-06-12T20:11:25.557Z,3.03
2018-06-12T20:13:54.112Z,2.33
2018-06-12T20:16:22.624Z,3.20
2018-06-12T20:18:50.815Z,2.57
2018-06-12T20:21:19.281Z,3.97
2018-06-12T20:23:47.506Z,4.13
2018-06-12T20:26:15.994Z,2.40
2018-06-12T20:28:44.501Z,1.83
2018-06-12T20:31:13.013Z,5.23
2018-06-12T20:33:41.539Z,4.73
2018-06-12T20:36:10.027Z,2.70
2018-06-12T20:38:38.612Z,4.30
2018-06-12T20:41:07.196Z,3.80
2018-06-12T20:43:35.771Z,5.13
2018-06-12T20:46:04.326Z,6.53
2018-06-12T20:48:32.860Z,7.30
2018-06-12T20:51:01.376Z,4.83
2018-06-12T20:53:29.973Z,3.03
2018-06-12T20:55:58.515Z,2.53
2018-06-12T20:58:27.032Z,4.33
2018-06-12T21:00:55.626Z,4.27
2018-06-12T21:03:24.279Z,2.40
2018-06-12T21:05:52.813Z,4.60
2018-06-12T21:08:21.329Z,3.03
2018-06-12T21:10:49.775Z,4.77
2018-06-12T21:13:18.223Z,7.00
2018-06-12T21:15:46.729Z,6.60
2018-06-12T21:18:15.220Z,3.60
2018-06-12T21:20:43.716Z,4.53
2018-06-12T21:23:12.248Z,3.70
2018-06-12T21:25:40.759Z,3.13
2018-06-12T21:28:09.233Z,3.90
2018-06-12T21:30:37.717Z,4.53
2018-06-12T21:33:06.275Z,5.97
2018-06-12T21:35:34.745Z,3.30
2018-06-12T21:38:03.288Z,2.37
2018-06-12T21:40:32.788Z,3.50
2018-06-12T21:43:01.321Z,3.53
2018-06-12T21:45:30.509Z,6.70
2018-06-12T21:47:59.041Z,8.57
2018-06-12T21:50:27.931Z,4.93
2018-06-12T21:52:56.163Z,6.50
2018-06-12T21:55:24.666Z,5.40
2018-06-12T21:57:53.220Z,5.87
2018-06-12T22:00:31.936Z,3.83
2018-06-12T22:03:01.159Z,9.33
2018-06-12T22:05:29.694Z,4.90
2018-06-12T22:07:57.875Z,4.33
2018-06-12T22:10:26.917Z,3.43
2018-06-12T22:12:55.428Z,6.10
2018-06-12T22:15:24.406Z,5.97
2018-06-12T22:17:54.783Z,3.70
2018-06-12T22:20:23.747Z,4.40
2018-06-12T22:22:52.820Z,6.60
2018-06-12T22:25:22.098Z,5.30
2018-06-12T22:27:51.211Z,5.83
2018-06-12T22:30:20.495Z,4.47
2018-06-12T22:32:49.499Z,5.77
2018-06-12T22:35:18.800Z,8.10
2018-06-12T22:37:47.667Z,3.10
2018-06-12T22:40:16.862Z,5.30
2018-06-12T22:42:45.219Z,4.23
2018-06-12T22:45:13.799Z,4.13
2018-06-12T22:47:42.281Z,4.23
2018-06-12T22:50:10.782Z,4.13
2018-06-12T22:52:39.312Z,4.97
2018-06-12T22:55:07.890Z,4.27
2018-06-12T22:57:36.395Z,2.90
2018-06-12T23:00:04.963Z,5.70
2018-06-12T23:02:33.143Z,6.30
2018-06-12T23:05:01.671Z,3.60
2018-06-12T23:07:30.200Z,3.83
2018-06-12T23:09:58.758Z,5.73
2018-06-12T23:12:27.322Z,7.60
2018-06-12T23:14:55.914Z,9.13
2018-06-12T23:17:24.433Z,5.93
2018-06-12T23:20:04.039Z,8.13
2018-06-12T23:22:32.989Z,7.53
2018-06-12T23:25:01.482Z,8.00
2018-06-12T23:27:29.972Z,8.93
2018-06-12T23:29:58.476Z,5.23
2018-06-12T23:32:27.012Z,8.87
2018-06-12T23:34:55.550Z,5.93
2018-06-12T23:37:24.100Z,10.93
2018-06-12T23:39:52.661Z,5.23
2018-06-12T23:42:21.138Z,7.57
2018-06-12T23:44:49.643Z,4.87
2018-06-12T23:47:18.086Z,7.93
2018-06-12T23:49:46.869Z,6.40
2018-06-12T23:52:15.374Z,7.60
2018-06-12T23:54:43.895Z,3.63
2018-06-12T23:57:12.353Z,3.13
2018-06-12T23:59:40.798Z,3.03
